YQL weather

Lethbridge County Airport
Lethbridge, Alberta, Canada

Public forecast

Using degrees Celsius for public forecast. Weather courtesy of forecast.io.

Current aviation weather report (METAR) for Lethbridge County Airport

Retrieved 2019/10/23 08:19 UTC (25 minutes ago):

CYQL 230819Z AUTO 27009KT 9SM SCT039 SCT055 OVC077 03/02 A3011 RMK SLP217

Aviation forecast (TAF) for Lethbridge County Airport

Retrieved 2019/10/23 06:42 UTC (2 hours ago):

TAF CYQL 230540Z 2306/2318 34012KT P6SM FEW020 OVC040 TEMPO 2306/2310 P6SM -SHRA BKN020 OVC040 FM231000 34012KT P6SM FEW040 BKN070 BECMG 2315/2317 34015G25KT RMK FCST BASED ON AUTO OBS NXT FCST BY 231200Z